Terminal Aerodrome Forecast
Issued by NWS Key West, FL

Home | Current Version | Previous Version | Text Only | Print | Product List | Glossary On
Versions: 1 2 3 4 5 6 7 8 9 10 11 12 13 14 15 16
000
FTUS42 KKEY 111128
TAFEYW
TAF
KEYW 111128Z 1112/1212 01012G20KT P6SM SKC
     FM111600 36012KT P6SM SKC
     FM120200 36005KT P6SM SKC=

USA.gov is the U.S. government's official web portal to all federal, state and local government web resources and services.